sensor_id;sensor_type;location;lat;lon;timestamp;pressure;altitude;pressure_sealevel;temperature;humidity
11676;BME280;5894;42.768;23.404;2023-12-22T00:02:17;94201.97;;;1.46;100.00
11676;BME280;5894;42.768;23.404;2023-12-22T00:04:44;94194.78;;;1.43;100.00
11676;BME280;5894;42.768;23.404;2023-12-22T00:07:11;94196.31;;;1.44;100.00
11676;BME280;5894;42.768;23.404;2023-12-22T00:09:38;94189.50;;;1.48;100.00
11676;BME280;5894;42.768;23.404;2023-12-22T00:12:05;94198.69;;;1.41;100.00
11676;BME280;5894;42.768;23.404;2023-12-22T00:14:34;94188.28;;;1.41;100.00
11676;BME280;5894;42.768;23.404;2023-12-22T00:17:03;94179.50;;;1.37;100.00
11676;BME280;5894;42.768;23.404;2023-12-22T00:19:30;94186.75;;;1.40;100.00
11676;BME280;5894;42.768;23.404;2023-12-22T00:21:57;94172.88;;;1.50;100.00
11676;BME280;5894;42.768;23.404;2023-12-22T00:24:24;94169.25;;;1.45;100.00
11676;BME280;5894;42.768;23.404;2023-12-22T00:26:51;94176.59;;;1.43;100.00
11676;BME280;5894;42.768;23.404;2023-12-22T00:29:18;94171.66;;;1.18;100.00
11676;BME280;5894;42.768;23.404;2023-12-22T00:31:47;94163.63;;;1.15;100.00
11676;BME280;5894;42.768;23.404;2023-12-22T00:34:14;94155.00;;;1.24;100.00
11676;BME280;5894;42.768;23.404;2023-12-22T00:36:41;94151.38;;;1.20;100.00
11676;BME280;5894;42.768;23.404;2023-12-22T00:39:08;94159.16;;;0.96;100.00
11676;BME280;5894;42.768;23.404;2023-12-22T00:41:35;94154.91;;;0.82;100.00
11676;BME280;5894;42.768;23.404;2023-12-22T00:44:02;94144.38;;;0.68;100.00
11676;BME280;5894;42.768;23.404;2023-12-22T00:46:29;94142.31;;;0.65;100.00
11676;BME280;5894;42.768;23.404;2023-12-22T00:48:57;94150.38;;;0.63;100.00
11676;BME280;5894;42.768;23.404;2023-12-22T00:51:24;94140.94;;;0.44;100.00
11676;BME280;5894;42.768;23.404;2023-12-22T00:53:51;94141.81;;;0.34;100.00
11676;BME280;5894;42.768;23.404;2023-12-22T00:56:18;94127.63;;;0.26;100.00
11676;BME280;5894;42.768;23.404;2023-12-22T00:58:45;94125.06;;;0.21;100.00
11676;BME280;5894;42.768;23.404;2023-12-22T01:01:12;94116.13;;;0.38;100.00
11676;BME280;5894;42.768;23.404;2023-12-22T01:03:39;94125.88;;;0.51;100.00
11676;BME280;5894;42.768;23.404;2023-12-22T01:06:07;94125.22;;;0.64;100.00
11676;BME280;5894;42.768;23.404;2023-12-22T01:08:36;94131.31;;;0.78;100.00
11676;BME280;5894;42.768;23.404;2023-12-22T01:11:04;94127.59;;;0.84;100.00
11676;BME280;5894;42.768;23.404;2023-12-22T01:13:31;94124.19;;;0.89;100.00
11676;BME280;5894;42.768;23.404;2023-12-22T01:15:58;94113.72;;;0.99;100.00
11676;BME280;5894;42.768;23.404;2023-12-22T01:18:25;94110.22;;;1.08;100.00
11676;BME280;5894;42.768;23.404;2023-12-22T01:20:54;94105.47;;;1.16;100.00
11676;BME280;5894;42.768;23.404;2023-12-22T01:23:23;94112.38;;;1.25;100.00
11676;BME280;5894;42.768;23.404;2023-12-22T01:25:50;94101.84;;;1.35;100.00
11676;BME280;5894;42.768;23.404;2023-12-22T01:28:17;94105.94;;;1.41;100.00
11676;BME280;5894;42.768;23.404;2023-12-22T01:30:44;94115.44;;;1.51;100.00
11676;BME280;5894;42.768;23.404;2023-12-22T01:33:11;94097.94;;;1.57;100.00
11676;BME280;5894;42.768;23.404;2023-12-22T01:35:38;94096.13;;;1.57;100.00
11676;BME280;5894;42.768;23.404;2023-12-22T01:38:05;94095.53;;;1.65;100.00
11676;BME280;5894;42.768;23.404;2023-12-22T01:40:33;94097.34;;;1.83;100.00
11676;BME280;5894;42.768;23.404;2023-12-22T01:43:01;94101.34;;;1.76;100.00
11676;BME280;5894;42.768;23.404;2023-12-22T01:45:28;94087.84;;;1.74;100.00
11676;BME280;5894;42.768;23.404;2023-12-22T01:47:55;94092.19;;;1.60;100.00
11676;BME280;5894;42.768;23.404;2023-12-22T01:50:22;94096.34;;;1.61;100.00
11676;BME280;5894;42.768;23.404;2023-12-22T01:52:50;94098.16;;;1.79;100.00
11676;BME280;5894;42.768;23.404;2023-12-22T01:55:17;94119.41;;;1.86;100.00
11676;BME280;5894;42.768;23.404;2023-12-22T01:57:46;94097.34;;;1.83;100.00
11676;BME280;5894;42.768;23.404;2023-12-22T02:00:14;94092.63;;;1.86;100.00
11676;BME280;5894;42.768;23.404;2023-12-22T02:02:42;94107.94;;;1.87;100.00
11676;BME280;5894;42.768;23.404;2023-12-22T02:05:09;94096.00;;;1.86;100.00
11676;BME280;5894;42.768;23.404;2023-12-22T02:07:37;94102.81;;;1.82;100.00
11676;BME280;5894;42.768;23.404;2023-12-22T02:10:06;94095.16;;;1.72;100.00
11676;BME280;5894;42.768;23.404;2023-12-22T02:12:34;94078.16;;;1.61;100.00
11676;BME280;5894;42.768;23.404;2023-12-22T02:15:03;94081.66;;;1.70;100.00
11676;BME280;5894;42.768;23.404;2023-12-22T02:17:38;94077.47;;;1.74;100.00
11676;BME280;5894;42.768;23.404;2023-12-22T02:20:07;94076.53;;;1.83;100.00
11676;BME280;5894;42.768;23.404;2023-12-22T02:22:36;94074.88;;;1.74;100.00
11676;BME280;5894;42.768;23.404;2023-12-22T02:25:04;94083.00;;;1.67;100.00
11676;BME280;5894;42.768;23.404;2023-12-22T02:27:34;94068.59;;;1.56;100.00
11676;BME280;5894;42.768;23.404;2023-12-22T02:30:08;94061.09;;;1.55;100.00
11676;BME280;5894;42.768;23.404;2023-12-22T02:32:39;94048.13;;;1.55;100.00
11676;BME280;5894;42.768;23.404;2023-12-22T02:35:10;94043.69;;;1.55;100.00
11676;BME280;5894;42.768;23.404;2023-12-22T02:37:39;94034.69;;;1.47;100.00
11676;BME280;5894;42.768;23.404;2023-12-22T02:40:07;94002.47;;;1.30;100.00
11676;BME280;5894;42.768;23.404;2023-12-22T02:42:36;94051.69;;;1.40;100.00
11676;BME280;5894;42.768;23.404;2023-12-22T02:45:04;94059.91;;;1.47;100.00
11676;BME280;5894;42.768;23.404;2023-12-22T02:47:30;94060.06;;;1.56;100.00
11676;BME280;5894;42.768;23.404;2023-12-22T02:49:59;94069.72;;;1.50;100.00
11676;BME280;5894;42.768;23.404;2023-12-22T02:52:25;94066.84;;;1.52;100.00
11676;BME280;5894;42.768;23.404;2023-12-22T02:54:54;94064.03;;;1.48;100.00
11676;BME280;5894;42.768;23.404;2023-12-22T02:57:21;94054.06;;;1.36;100.00
11676;BME280;5894;42.768;23.404;2023-12-22T02:59:48;94045.22;;;1.37;100.00
11676;BME280;5894;42.768;23.404;2023-12-22T03:02:15;94045.84;;;1.48;100.00
11676;BME280;5894;42.768;23.404;2023-12-22T03:04:42;94036.03;;;1.45;100.00
11676;BME280;5894;42.768;23.404;2023-12-22T03:07:09;94035.59;;;1.57;100.00
11676;BME280;5894;42.768;23.404;2023-12-22T03:09:36;94039.69;;;1.63;100.00
11676;BME280;5894;42.768;23.404;2023-12-22T03:12:05;94041.44;;;1.67;100.00
11676;BME280;5894;42.768;23.404;2023-12-22T03:14:32;94049.38;;;1.76;100.00
11676;BME280;5894;42.768;23.404;2023-12-22T03:16:59;94044.19;;;1.76;100.00
11676;BME280;5894;42.768;23.404;2023-12-22T03:19:27;94044.59;;;1.83;100.00
11676;BME280;5894;42.768;23.404;2023-12-22T03:21:54;94045.91;;;1.80;100.00
11676;BME280;5894;42.768;23.404;2023-12-22T03:24:22;94041.44;;;1.67;100.00
11676;BME280;5894;42.768;23.404;2023-12-22T03:26:49;94036.44;;;1.71;100.00
11676;BME280;5894;42.768;23.404;2023-12-22T03:29:18;94027.34;;;1.55;100.00
11676;BME280;5894;42.768;23.404;2023-12-22T03:31:45;94031.31;;;1.47;100.00
11676;BME280;5894;42.768;23.404;2023-12-22T03:34:12;94031.53;;;1.51;100.00
11676;BME280;5894;42.768;23.404;2023-12-22T03:36:39;94027.03;;;1.56;100.00
11676;BME280;5894;42.768;23.404;2023-12-22T03:39:06;94027.88;;;1.70;100.00
11676;BME280;5894;42.768;23.404;2023-12-22T03:41:33;94007.31;;;1.55;100.00
11676;BME280;5894;42.768;23.404;2023-12-22T03:44:00;94012.53;;;1.55;100.00
11676;BME280;5894;42.768;23.404;2023-12-22T03:46:29;94019.25;;;1.56;100.00
11676;BME280;5894;42.768;23.404;2023-12-22T03:48:56;94018.91;;;1.63;100.00
11676;BME280;5894;42.768;23.404;2023-12-22T03:51:22;94015.00;;;1.79;100.00
11676;BME280;5894;42.768;23.404;2023-12-22T03:53:50;94011.28;;;1.85;100.00
11676;BME280;5894;42.768;23.404;2023-12-22T03:56:16;93987.34;;;1.69;100.00
11676;BME280;5894;42.768;23.404;2023-12-22T03:58:44;94017.28;;;1.99;100.00
11676;BME280;5894;42.768;23.404;2023-12-22T04:01:14;94012.97;;;2.08;100.00
11676;BME280;5894;42.768;23.404;2023-12-22T04:03:43;94012.63;;;2.15;100.00
11676;BME280;5894;42.768;23.404;2023-12-22T04:06:10;93987.03;;;1.90;100.00
11676;BME280;5894;42.768;23.404;2023-12-22T04:08:37;94012.41;;;2.11;100.00
11676;BME280;5894;42.768;23.404;2023-12-22T04:11:04;94008.09;;;2.07;100.00
11676;BME280;5894;42.768;23.404;2023-12-22T04:13:30;94007.00;;;2.08;100.00
11676;BME280;5894;42.768;23.404;2023-12-22T04:15:57;94022.06;;;2.25;100.00
11676;BME280;5894;42.768;23.404;2023-12-22T04:18:25;94013.78;;;2.22;100.00
11676;BME280;5894;42.768;23.404;2023-12-22T04:20:54;94014.34;;;2.19;100.00
11676;BME280;5894;42.768;23.404;2023-12-22T04:23:21;94020.16;;;2.16;100.00
11676;BME280;5894;42.768;23.404;2023-12-22T04:25:48;94022.28;;;2.28;100.00
11676;BME280;5894;42.768;23.404;2023-12-22T04:28:15;94013.56;;;2.19;100.00
11676;BME280;5894;42.768;23.404;2023-12-22T04:30:42;94013.13;;;2.31;100.00
11676;BME280;5894;42.768;23.404;2023-12-22T04:33:09;94007.84;;;2.36;100.00
11676;BME280;5894;42.768;23.404;2023-12-22T04:35:36;94011.00;;;2.33;100.00
11676;BME280;5894;42.768;23.404;2023-12-22T04:38:04;94010.34;;;2.41;100.00
11676;BME280;5894;42.768;23.404;2023-12-22T04:40:31;94013.72;;;2.41;100.00
11676;BME280;5894;42.768;23.404;2023-12-22T04:42:58;93944.78;;;1.98;100.00
11676;BME280;5894;42.768;23.404;2023-12-22T04:45:25;94012.47;;;2.52;100.00
11676;BME280;5894;42.768;23.404;2023-12-22T04:47:52;94020.50;;;2.56;100.00
11676;BME280;5894;42.768;23.404;2023-12-22T04:50:19;94004.78;;;2.61;100.00
11676;BME280;5894;42.768;23.404;2023-12-22T04:52:46;94002.38;;;2.65;100.00
11676;BME280;5894;42.768;23.404;2023-12-22T04:55:14;94007.69;;;2.60;100.00
11676;BME280;5894;42.768;23.404;2023-12-22T04:57:42;94006.81;;;2.64;100.00
11676;BME280;5894;42.768;23.404;2023-12-22T05:00:09;94010.84;;;2.70;100.00
11676;BME280;5894;42.768;23.404;2023-12-22T05:02:36;94008.63;;;2.64;100.00
11676;BME280;5894;42.768;23.404;2023-12-22T05:05:04;94000.44;;;2.56;100.00
11676;BME280;5894;42.768;23.404;2023-12-22T05:07:31;94005.56;;;2.48;100.00
11676;BME280;5894;42.768;23.404;2023-12-22T05:09:58;93954.06;;;2.17;100.00
11676;BME280;5894;42.768;23.404;2023-12-22T05:12:26;94002.19;;;2.47;100.00
11676;BME280;5894;42.768;23.404;2023-12-22T05:14:53;94002.84;;;2.53;100.00
11676;BME280;5894;42.768;23.404;2023-12-22T05:17:20;93993.88;;;2.45;100.00
11676;BME280;5894;42.768;23.404;2023-12-22T05:19:47;93995.44;;;2.46;100.00
11676;BME280;5894;42.768;23.404;2023-12-22T05:22:14;93988.56;;;2.50;100.00
11676;BME280;5894;42.768;23.404;2023-12-22T05:24:41;93978.47;;;2.35;100.00
11676;BME280;5894;42.768;23.404;2023-12-22T05:27:08;93995.16;;;2.48;100.00
11676;BME280;5894;42.768;23.404;2023-12-22T05:29:36;94002.19;;;2.47;100.00
11676;BME280;5894;42.768;23.404;2023-12-22T05:32:05;93989.94;;;2.48;100.00
11676;BME280;5894;42.768;23.404;2023-12-22T05:34:32;93995.16;;;2.48;100.00
11676;BME280;5894;42.768;23.404;2023-12-22T05:36:59;93997.06;;;2.42;100.00
11676;BME280;5894;42.768;23.404;2023-12-22T05:39:26;93989.25;;;2.42;100.00
11676;BME280;5894;42.768;23.404;2023-12-22T05:41:53;93992.06;;;2.46;100.00
11676;BME280;5894;42.768;23.404;2023-12-22T05:44:20;94000.34;;;2.48;100.00
11676;BME280;5894;42.768;23.404;2023-12-22T05:46:49;93984.91;;;2.51;100.00
11676;BME280;5894;42.768;23.404;2023-12-22T05:49:16;93985.13;;;2.55;100.00
11676;BME280;5894;42.768;23.404;2023-12-22T05:51:43;93987.16;;;2.58;100.00
11676;BME280;5894;42.768;23.404;2023-12-22T05:54:11;93970.34;;;2.50;100.00
11676;BME280;5894;42.768;23.404;2023-12-22T05:56:38;93989.16;;;2.61;100.00
11676;BME280;5894;42.768;23.404;2023-12-22T05:59:05;93972.47;;;2.62;100.00
11676;BME280;5894;42.768;23.404;2023-12-22T06:01:32;93976.06;;;2.66;100.00
11676;BME280;5894;42.768;23.404;2023-12-22T06:04:01;93971.81;;;2.70;100.00
11676;BME280;5894;42.768;23.404;2023-12-22T06:06:28;93967.56;;;2.74;100.00
11676;BME280;5894;42.768;23.404;2023-12-22T06:08:55;93973.25;;;2.76;100.00
11676;BME280;5894;42.768;23.404;2023-12-22T06:11:22;93970.66;;;2.76;100.00
11676;BME280;5894;42.768;23.404;2023-12-22T06:13:49;93968.13;;;2.85;100.00
11676;BME280;5894;42.768;23.404;2023-12-22T06:16:16;93980.09;;;2.86;100.00
11676;BME280;5894;42.768;23.404;2023-12-22T06:18:44;93969.69;;;2.72;100.00
11676;BME280;5894;42.768;23.404;2023-12-22T06:21:12;93985.13;;;2.69;100.00
11676;BME280;5894;42.768;23.404;2023-12-22T06:23:39;93983.88;;;2.66;100.00
11676;BME280;5894;42.768;23.404;2023-12-22T06:26:09;93972.97;;;2.64;100.00
11676;BME280;5894;42.768;23.404;2023-12-22T06:28:37;93981.63;;;2.73;100.00
11676;BME280;5894;42.768;23.404;2023-12-22T06:31:05;93979.81;;;2.74;100.00
11676;BME280;5894;42.768;23.404;2023-12-22T06:33:32;93986.47;;;2.66;100.00
11676;BME280;5894;42.768;23.404;2023-12-22T06:35:59;93989.72;;;2.72;100.00
11676;BME280;5894;42.768;23.404;2023-12-22T06:38:28;93989.72;;;2.72;100.00
11676;BME280;5894;42.768;23.404;2023-12-22T06:40:55;93996.19;;;2.74;100.00
11676;BME280;5894;42.768;23.404;2023-12-22T06:43:22;93977.13;;;2.65;100.00
11676;BME280;5894;42.768;23.404;2023-12-22T06:45:50;94008.44;;;2.74;100.00
11676;BME280;5894;42.768;23.404;2023-12-22T06:48:20;94006.91;;;2.73;100.00
11676;BME280;5894;42.768;23.404;2023-12-22T06:50:47;94004.13;;;2.69;100.00
11676;BME280;5894;42.768;23.404;2023-12-22T06:53:14;94003.34;;;2.55;100.00
11676;BME280;5894;42.768;23.404;2023-12-22T06:55:42;93995.41;;;2.60;100.00
11676;BME280;5894;42.768;23.404;2023-12-22T06:58:10;94003.22;;;2.60;100.00
11676;BME280;5894;42.768;23.404;2023-12-22T07:00:37;93998.63;;;2.57;100.00
11676;BME280;5894;42.768;23.404;2023-12-22T07:03:04;93993.78;;;2.64;100.00
11676;BME280;5894;42.768;23.404;2023-12-22T07:05:34;93863.41;;;1.70;100.00
11676;BME280;5894;42.768;23.404;2023-12-22T07:08:04;94004.56;;;2.71;100.00
11676;BME280;5894;42.768;23.404;2023-12-22T07:10:31;94005.28;;;2.77;100.00
11676;BME280;5894;42.768;23.404;2023-12-22T07:13:00;94009.22;;;2.74;100.00
11676;BME280;5894;42.768;23.404;2023-12-22T07:15:27;94012.78;;;2.78;100.00
11676;BME280;5894;42.768;23.404;2023-12-22T07:17:54;94014.13;;;2.89;100.00
11676;BME280;5894;42.768;23.404;2023-12-22T07:20:21;94017.72;;;2.80;100.00
11676;BME280;5894;42.768;23.404;2023-12-22T07:22:48;94021.25;;;2.70;100.00
11676;BME280;5894;42.768;23.404;2023-12-22T07:25:16;94026.09;;;2.77;100.00
11676;BME280;5894;42.768;23.404;2023-12-22T07:27:44;94023.19;;;2.65;100.00
11676;BME280;5894;42.768;23.404;2023-12-22T07:30:14;94033.31;;;2.66;100.00
11676;BME280;5894;42.768;23.404;2023-12-22T07:32:45;94024.94;;;2.69;100.00
11676;BME280;5894;42.768;23.404;2023-12-22T07:35:15;94020.19;;;2.71;100.00
11676;BME280;5894;42.768;23.404;2023-12-22T07:37:41;94027.44;;;2.74;100.00
11676;BME280;5894;42.768;23.404;2023-12-22T07:40:09;94029.94;;;2.79;100.00
11676;BME280;5894;42.768;23.404;2023-12-22T07:42:36;94033.22;;;2.85;100.00
11676;BME280;5894;42.768;23.404;2023-12-22T07:45:05;94034.75;;;2.86;100.00
11676;BME280;5894;42.768;23.404;2023-12-22T07:47:34;94042.19;;;2.79;100.00
11676;BME280;5894;42.768;23.404;2023-12-22T07:50:02;94047.75;;;2.72;100.00
11676;BME280;5894;42.768;23.404;2023-12-22T07:52:29;94050.94;;;2.83;100.00
11676;BME280;5894;42.768;23.404;2023-12-22T07:54:56;94043.34;;;2.86;100.00
11676;BME280;5894;42.768;23.404;2023-12-22T07:57:23;94057.72;;;2.84;100.00
11676;BME280;5894;42.768;23.404;2023-12-22T07:59:50;94053.75;;;2.73;100.00
11676;BME280;5894;42.768;23.404;2023-12-22T08:02:17;94063.19;;;2.82;100.00
11676;BME280;5894;42.768;23.404;2023-12-22T08:04:45;94058.88;;;2.78;100.00
11676;BME280;5894;42.768;23.404;2023-12-22T08:07:13;94061.66;;;2.81;100.00
11676;BME280;5894;42.768;23.404;2023-12-22T08:09:40;94066.78;;;2.86;100.00
11676;BME280;5894;42.768;23.404;2023-12-22T08:12:08;94066.00;;;2.86;100.00
11676;BME280;5894;42.768;23.404;2023-12-22T08:14:35;94069.19;;;2.97;100.00
11676;BME280;5894;42.768;23.404;2023-12-22T08:17:02;94074.69;;;3.09;100.00
11676;BME280;5894;42.768;23.404;2023-12-22T08:19:28;94071.88;;;3.19;100.00
11676;BME280;5894;42.768;23.404;2023-12-22T08:21:57;94076.41;;;3.27;100.00
11676;BME280;5894;42.768;23.404;2023-12-22T08:24:24;94085.47;;;3.29;100.00
11676;BME280;5894;42.768;23.404;2023-12-22T08:26:51;94081.91;;;3.25;100.00
11676;BME280;5894;42.768;23.404;2023-12-22T08:29:18;94088.25;;;3.33;100.00
11676;BME280;5894;42.768;23.404;2023-12-22T08:31:46;94086.91;;;3.36;100.00
11676;BME280;5894;42.768;23.404;2023-12-22T08:34:13;94090.88;;;3.33;100.00
11676;BME280;5894;42.768;23.404;2023-12-22T08:36:40;94100.91;;;3.26;100.00
11676;BME280;5894;42.768;23.404;2023-12-22T08:39:08;94098.09;;;3.36;100.00
11676;BME280;5894;42.768;23.404;2023-12-22T08:41:35;94094.44;;;3.37;100.00
11676;BME280;5894;42.768;23.404;2023-12-22T08:44:03;94099.09;;;3.40;100.00
11676;BME280;5894;42.768;23.404;2023-12-22T08:46:30;94098.69;;;3.47;100.00
11676;BME280;5894;42.768;23.404;2023-12-22T08:48:57;94093.66;;;3.50;100.00
11676;BME280;5894;42.768;23.404;2023-12-22T08:51:25;94096.06;;;3.60;100.00
11676;BME280;5894;42.768;23.404;2023-12-22T08:53:53;94097.13;;;3.59;100.00
11676;BME280;5894;42.768;23.404;2023-12-22T08:56:22;94094.41;;;3.64;100.00
11676;BME280;5894;42.768;23.404;2023-12-22T08:58:51;94057.75;;;3.47;100.00
11676;BME280;5894;42.768;23.404;2023-12-22T09:01:20;94096.78;;;3.75;100.00
11676;BME280;5894;42.768;23.404;2023-12-22T09:03:47;94095.63;;;3.81;100.00
11676;BME280;5894;42.768;23.404;2023-12-22T09:06:15;94104.38;;;3.85;100.00
11676;BME280;5894;42.768;23.404;2023-12-22T09:08:42;94102.75;;;3.89;100.00
11676;BME280;5894;42.768;23.404;2023-12-22T09:11:11;94112.59;;;3.92;100.00
11676;BME280;5894;42.768;23.404;2023-12-22T09:13:39;94099.56;;;3.92;100.00
11676;BME280;5894;42.768;23.404;2023-12-22T09:16:07;94097.34;;;3.85;100.00
11676;BME280;5894;42.768;23.404;2023-12-22T09:18:35;94102.22;;;4.00;100.00
11676;BME280;5894;42.768;23.404;2023-12-22T09:21:04;94102.09;;;4.05;100.00
11676;BME280;5894;42.768;23.404;2023-12-22T09:23:32;94098.63;;;4.10;100.00
11676;BME280;5894;42.768;23.404;2023-12-22T09:25:59;94099.88;;;4.13;100.00
11676;BME280;5894;42.768;23.404;2023-12-22T09:28:26;94091.91;;;4.18;100.00
11676;BME280;5894;42.768;23.404;2023-12-22T09:30:54;94088.31;;;4.27;100.00
11676;BME280;5894;42.768;23.404;2023-12-22T09:33:21;94092.63;;;4.32;100.00
11676;BME280;5894;42.768;23.404;2023-12-22T09:35:48;94091.00;;;4.36;100.00
11676;BME280;5894;42.768;23.404;2023-12-22T09:38:16;94094.81;;;4.38;100.00
11676;BME280;5894;42.768;23.404;2023-12-22T09:40:43;94097.81;;;4.46;100.00
11676;BME280;5894;42.768;23.404;2023-12-22T09:43:12;94092.44;;;4.51;100.00
11676;BME280;5894;42.768;23.404;2023-12-22T09:45:41;94098.88;;;4.45;100.00
11676;BME280;5894;42.768;23.404;2023-12-22T09:48:13;94104.72;;;4.50;100.00
11676;BME280;5894;42.768;23.404;2023-12-22T09:50:43;94104.53;;;4.47;100.00
11676;BME280;5894;42.768;23.404;2023-12-22T09:53:11;94081.41;;;4.54;100.00
11676;BME280;5894;42.768;23.404;2023-12-22T09:55:42;94058.69;;;4.54;100.00
11676;BME280;5894;42.768;23.404;2023-12-22T09:58:09;94055.81;;;4.64;100.00
11676;BME280;5894;42.768;23.404;2023-12-22T10:00:38;94074.13;;;4.73;100.00
11676;BME280;5894;42.768;23.404;2023-12-22T10:03:06;94069.09;;;4.76;100.00
11676;BME280;5894;42.768;23.404;2023-12-22T10:05:35;94065.84;;;4.71;100.00
11676;BME280;5894;42.768;23.404;2023-12-22T10:08:04;94064.97;;;4.84;100.00
11676;BME280;5894;42.768;23.404;2023-12-22T10:10:32;94053.00;;;4.92;100.00
11676;BME280;5894;42.768;23.404;2023-12-22T10:12:59;94061.66;;;5.01;100.00
11676;BME280;5894;42.768;23.404;2023-12-22T10:15:29;94048.16;;;5.07;100.00
11676;BME280;5894;42.768;23.404;2023-12-22T10:17:57;94044.34;;;5.13;100.00
11676;BME280;5894;42.768;23.404;2023-12-22T10:20:24;94045.28;;;5.18;100.00
11676;BME280;5894;42.768;23.404;2023-12-22T10:22:52;94038.06;;;5.23;100.00
11676;BME280;5894;42.768;23.404;2023-12-22T10:25:20;93996.78;;;4.94;100.00
11676;BME280;5894;42.768;23.404;2023-12-22T10:27:48;94044.34;;;5.22;100.00
11676;BME280;5894;42.768;23.404;2023-12-22T10:30:15;94011.91;;;5.14;100.00
11676;BME280;5894;42.768;23.404;2023-12-22T10:32:43;94015.78;;;5.34;100.00
11676;BME280;5894;42.768;23.404;2023-12-22T10:35:10;94008.13;;;5.46;100.00
11676;BME280;5894;42.768;23.404;2023-12-22T10:37:38;94011.03;;;5.53;100.00
11676;BME280;5894;42.768;23.404;2023-12-22T10:40:08;94008.72;;;5.61;100.00
11676;BME280;5894;42.768;23.404;2023-12-22T10:42:36;94004.44;;;5.73;100.00
11676;BME280;5894;42.768;23.404;2023-12-22T10:45:04;93979.81;;;5.66;100.00
11676;BME280;5894;42.768;23.404;2023-12-22T10:47:32;93989.97;;;5.84;100.00
11676;BME280;5894;42.768;23.404;2023-12-22T10:50:02;93966.75;;;5.74;100.00
11676;BME280;5894;42.768;23.404;2023-12-22T10:52:29;93985.81;;;5.92;100.00
11676;BME280;5894;42.768;23.404;2023-12-22T10:54:57;93992.44;;;5.98;100.00
11676;BME280;5894;42.768;23.404;2023-12-22T10:57:26;93989.34;;;6.05;100.00
11676;BME280;5894;42.768;23.404;2023-12-22T10:59:56;93971.81;;;5.97;100.00
11676;BME280;5894;42.768;23.404;2023-12-22T11:02:26;93980.28;;;6.11;100.00
11676;BME280;5894;42.768;23.404;2023-12-22T11:04:57;93991.50;;;6.11;100.00
11676;BME280;5894;42.768;23.404;2023-12-22T11:07:28;93998.88;;;6.18;100.00
11676;BME280;5894;42.768;23.404;2023-12-22T11:09:56;93988.56;;;6.21;100.00
11676;BME280;5894;42.768;23.404;2023-12-22T11:12:31;93975.16;;;6.23;100.00
11676;BME280;5894;42.768;23.404;2023-12-22T11:15:00;93970.84;;;6.27;100.00
11676;BME280;5894;42.768;23.404;2023-12-22T11:17:30;93955.41;;;6.34;100.00
11676;BME280;5894;42.768;23.404;2023-12-22T11:19:59;93953.56;;;6.35;100.00
11676;BME280;5894;42.768;23.404;2023-12-22T11:22:26;93949.09;;;6.35;100.00
11676;BME280;5894;42.768;23.404;2023-12-22T11:24:55;93939.88;;;6.29;100.00
11676;BME280;5894;42.768;23.404;2023-12-22T11:27:25;93966.81;;;6.38;100.00
11676;BME280;5894;42.768;23.404;2023-12-22T11:29:55;93968.50;;;6.43;100.00
11676;BME280;5894;42.768;23.404;2023-12-22T11:32:24;93962.78;;;6.41;100.00
11676;BME280;5894;42.768;23.404;2023-12-22T11:34:51;93973.53;;;6.48;100.00
11676;BME280;5894;42.768;23.404;2023-12-22T11:37:19;93991.09;;;6.47;100.00
11676;BME280;5894;42.768;23.404;2023-12-22T11:39:46;93993.88;;;6.51;100.00
11676;BME280;5894;42.768;23.404;2023-12-22T11:42:17;93989.41;;;6.51;100.00
11676;BME280;5894;42.768;23.404;2023-12-22T11:44:45;93956.22;;;6.26;100.00
11676;BME280;5894;42.768;23.404;2023-12-22T11:47:14;93998.66;;;6.49;100.00
11676;BME280;5894;42.768;23.404;2023-12-22T11:49:41;94001.84;;;6.54;100.00
11676;BME280;5894;42.768;23.404;2023-12-22T11:52:15;93996.19;;;6.52;100.00
11676;BME280;5894;42.768;23.404;2023-12-22T11:54:49;93992.16;;;6.55;100.00
11676;BME280;5894;42.768;23.404;2023-12-22T11:57:35;93981.81;;;6.58;100.00
11676;BME280;5894;42.768;23.404;2023-12-22T12:00:06;93976.28;;;6.60;100.00
11676;BME280;5894;42.768;23.404;2023-12-22T12:02:41;93909.56;;;6.28;100.00
11676;BME280;5894;42.768;23.404;2023-12-22T12:05:09;93968.56;;;6.55;100.00
11676;BME280;5894;42.768;23.404;2023-12-22T12:07:41;93967.06;;;6.54;100.00
11676;BME280;5894;42.768;23.404;2023-12-22T12:10:10;93979.81;;;6.64;100.00
11676;BME280;5894;42.768;23.404;2023-12-22T12:12:38;93982.09;;;6.66;100.00
11676;BME280;5894;42.768;23.404;2023-12-22T12:15:09;93980.56;;;6.73;100.00
11676;BME280;5894;42.768;23.404;2023-12-22T12:17:42;93974.34;;;6.78;100.00
11676;BME280;5894;42.768;23.404;2023-12-22T12:20:10;93990.22;;;6.81;100.00
11676;BME280;5894;42.768;23.404;2023-12-22T12:22:38;93970.16;;;6.85;100.00
11676;BME280;5894;42.768;23.404;2023-12-22T12:25:10;93972.44;;;6.87;100.00
11676;BME280;5894;42.768;23.404;2023-12-22T12:27:38;93957.38;;;6.84;100.00
11676;BME280;5894;42.768;23.404;2023-12-22T12:30:11;93943.06;;;6.81;100.00
11676;BME280;5894;42.768;23.404;2023-12-22T12:32:39;93957.25;;;6.80;100.00
11676;BME280;5894;42.768;23.404;2023-12-22T12:35:08;93959.28;;;6.75;100.00
11676;BME280;5894;42.768;23.404;2023-12-22T12:37:36;93938.19;;;6.71;100.00
11676;BME280;5894;42.768;23.404;2023-12-22T12:40:07;93942.28;;;6.81;100.00
11676;BME280;5894;42.768;23.404;2023-12-22T12:42:35;93945.69;;;6.81;100.00
11676;BME280;5894;42.768;23.404;2023-12-22T12:45:04;93948.16;;;6.78;100.00
11676;BME280;5894;42.768;23.404;2023-12-22T12:47:32;93947.38;;;6.77;100.00
11676;BME280;5894;42.768;23.404;2023-12-22T12:49:59;93941.25;;;6.73;100.00
11676;BME280;5894;42.768;23.404;2023-12-22T12:52:27;93951.28;;;6.71;100.00
11676;BME280;5894;42.768;23.404;2023-12-22T12:54:55;93960.84;;;6.67;100.00
11676;BME280;5894;42.768;23.404;2023-12-22T12:57:24;93975.47;;;6.68;100.00
11676;BME280;5894;42.768;23.404;2023-12-22T12:59:51;93981.97;;;6.62;100.00
11676;BME280;5894;42.768;23.404;2023-12-22T13:02:19;93975.50;;;6.59;100.00
11676;BME280;5894;42.768;23.404;2023-12-22T13:04:46;93978.41;;;6.67;100.00